Time;durP1;ratioP1;P1;durP2;ratioP2;P2;SDS_P1;SDS_P2;PMS_P1;PMS_P2;Temp;Humidity;BMP_temperature;BMP_pressure;BME280_temperature;BME280_humidity;BME280_pressure;Samples;Min_cycle;Max_cycle;Signal;HPM_P1;HPM_P2
2023/12/08 00:00:11;;;;;;;64.65;28.42;;;;;;;;;;2089706;28;20044;-62
2023/12/08 00:01:14;;;;;;;64.93;28.20;;;;;;;;;;2090438;28;20415;-62
2023/12/08 00:02:15;;;;;;;80.10;35.47;;;;;;;;;;2090513;28;20045;-63
2023/12/08 00:03:16;;;;;;;65.55;28.08;;;;;;;;;;2090648;28;20056;-63
2023/12/08 00:04:18;;;;;;;63.65;27.00;;;;;;;;;;2090378;28;20182;-62
2023/12/08 00:05:19;;;;;;;66.18;28.95;;;;;;;;;;2090409;28;20081;-62
2023/12/08 00:06:20;;;;;;;68.05;30.55;;;;;;;;;;2090332;28;20024;-62
2023/12/08 00:07:20;;;;;;;61.63;30.83;;;;;;;;;;2090222;28;20045;-62
2023/12/08 00:08:21;;;;;;;71.13;29.80;;;;;;;;;;2090359;28;20021;-62
2023/12/08 00:09:22;;;;;;;66.28;29.25;;;;;;;;;;2090619;28;20114;-62
2023/12/08 00:10:23;;;;;;;66.80;29.98;;;;;;;;;;2090382;28;20481;-62
2023/12/08 00:11:23;;;;;;;68.03;32.50;;;;;;;;;;2090625;28;20048;-62
2023/12/08 00:12:24;;;;;;;63.03;28.83;;;;;;;;;;2090696;28;20033;-62
2023/12/08 00:13:25;;;;;;;65.15;29.63;;;;;;;;;;2090268;28;20048;-62
2023/12/08 00:14:25;;;;;;;58.47;26.65;;;;;;;;;;2090285;28;20049;-63
2023/12/08 00:15:26;;;;;;;66.38;32.63;;;;;;;;;;2090545;28;20049;-62
2023/12/08 00:16:28;;;;;;;65.22;27.73;;;;;;;;;;2090077;28;20049;-63
2023/12/08 00:17:29;;;;;;;60.05;28.58;;;;;;;;;;2090492;28;20386;-62
2023/12/08 00:18:30;;;;;;;63.03;28.90;;;;;;;;;;2090204;28;20036;-62
2023/12/08 00:19:31;;;;;;;62.03;25.92;;;;;;;;;;2090253;28;20132;-62
2023/12/08 00:20:31;;;;;;;60.90;25.90;;;;;;;;;;2090490;28;20040;-63
2023/12/08 00:21:32;;;;;;;66.72;27.48;;;;;;;;;;2090185;28;20041;-63
2023/12/08 00:22:33;;;;;;;64.07;31.13;;;;;;;;;;2090480;28;20051;-63
2023/12/08 00:23:34;;;;;;;64.18;31.02;;;;;;;;;;2090325;28;20481;-62
2023/12/08 00:24:34;;;;;;;63.35;31.63;;;;;;;;;;2090691;28;20045;-62
2023/12/08 00:25:35;;;;;;;61.47;30.88;;;;;;;;;;2090716;28;20504;-62
2023/12/08 00:26:36;;;;;;;60.65;28.88;;;;;;;;;;2090358;28;20056;-62
2023/12/08 00:27:37;;;;;;;63.15;27.75;;;;;;;;;;2090240;28;20037;-63
2023/12/08 00:28:37;;;;;;;60.10;27.63;;;;;;;;;;2090689;28;20045;-63
2023/12/08 00:29:38;;;;;;;56.33;26.88;;;;;;;;;;2090341;28;20033;-63
2023/12/08 00:30:40;;;;;;;60.10;27.25;;;;;;;;;;2090271;28;20114;-62
2023/12/08 00:31:40;;;;;;;58.90;27.83;;;;;;;;;;2090219;28;20389;-63
2023/12/08 00:32:41;;;;;;;64.53;31.05;;;;;;;;;;2090090;28;20036;-63
2023/12/08 00:33:43;;;;;;;66.47;26.98;;;;;;;;;;2090423;28;20032;-62
2023/12/08 00:34:46;;;;;;;58.05;29.00;;;;;;;;;;2090498;28;20037;-62
2023/12/08 00:35:48;;;;;;;57.83;28.05;;;;;;;;;;2090536;28;20056;-62
2023/12/08 00:36:48;;;;;;;64.75;31.73;;;;;;;;;;2090493;28;20059;-62
2023/12/08 00:37:49;;;;;;;56.30;28.90;;;;;;;;;;2090154;28;20432;-63
2023/12/08 00:38:50;;;;;;;60.40;28.20;;;;;;;;;;2090196;28;20029;-63
2023/12/08 00:39:50;;;;;;;60.80;25.92;;;;;;;;;;2089944;28;20041;-63
2023/12/08 00:40:52;;;;;;;50.33;25.63;;;;;;;;;;2090411;28;20041;-63
2023/12/08 00:41:53;;;;;;;56.50;25.23;;;;;;;;;;2090207;28;20048;-62
2023/12/08 00:42:53;;;;;;;57.17;25.65;;;;;;;;;;2090791;28;20405;-62
2023/12/08 00:43:54;;;;;;;60.42;28.02;;;;;;;;;;2090542;28;20040;-62
2023/12/08 00:44:55;;;;;;;58.90;26.67;;;;;;;;;;2089980;28;20116;-63
2023/12/08 00:45:55;;;;;;;54.33;28.35;;;;;;;;;;2090386;28;20041;-62
2023/12/08 00:46:56;;;;;;;61.28;30.00;;;;;;;;;;2089452;28;20048;-62
2023/12/08 00:47:57;;;;;;;51.75;24.95;;;;;;;;;;2090150;28;20138;-62
2023/12/08 00:48:58;;;;;;;54.97;24.40;;;;;;;;;;2090241;28;20461;-62
2023/12/08 00:49:58;;;;;;;55.08;25.80;;;;;;;;;;2090125;28;20048;-62
2023/12/08 00:50:59;;;;;;;53.47;27.25;;;;;;;;;;2090176;28;20033;-63
2023/12/08 00:52:00;;;;;;;62.28;30.60;;;;;;;;;;2090587;28;20052;-62
2023/12/08 00:53:00;;;;;;;62.90;30.20;;;;;;;;;;2090165;28;20048;-62
2023/12/08 00:54:01;;;;;;;56.42;29.88;;;;;;;;;;2090157;28;20079;-63
2023/12/08 00:55:02;;;;;;;58.25;30.02;;;;;;;;;;2090238;28;20041;-62
2023/12/08 00:56:03;;;;;;;60.45;29.85;;;;;;;;;;2090428;28;20037;-63
2023/12/08 00:57:04;;;;;;;54.50;24.75;;;;;;;;;;2089756;28;20064;-63
2023/12/08 00:58:04;;;;;;;59.47;29.42;;;;;;;;;;2089841;28;20055;-62
2023/12/08 00:59:05;;;;;;;61.60;30.58;;;;;;;;;;2089911;28;20033;-63
2023/12/08 01:00:06;;;;;;;64.30;31.67;;;;;;;;;;2089645;28;20033;-62
2023/12/08 01:01:09;;;;;;;60.50;30.35;;;;;;;;;;2089488;28;20033;-62
2023/12/08 01:02:10;;;;;;;63.67;31.05;;;;;;;;;;2090227;28;20048;-63
2023/12/08 01:03:11;;;;;;;60.42;30.80;;;;;;;;;;2090478;28;20041;-62
2023/12/08 01:04:11;;;;;;;60.25;31.10;;;;;;;;;;2089806;28;20037;-63
2023/12/08 01:05:12;;;;;;;55.72;26.02;;;;;;;;;;2090079;28;20033;-63
2023/12/08 01:06:13;;;;;;;58.53;28.60;;;;;;;;;;2090341;28;20037;-62
2023/12/08 01:07:14;;;;;;;61.63;30.00;;;;;;;;;;2089013;28;20074;-63
2023/12/08 01:08:14;;;;;;;62.53;29.73;;;;;;;;;;2089585;28;20060;-62
2023/12/08 01:09:15;;;;;;;60.70;30.33;;;;;;;;;;2090172;28;20037;-62
2023/12/08 01:10:16;;;;;;;66.25;31.98;;;;;;;;;;2090092;28;20084;-62
2023/12/08 01:11:17;;;;;;;57.78;27.08;;;;;;;;;;2090175;28;20404;-63
2023/12/08 01:12:17;;;;;;;66.05;31.20;;;;;;;;;;2090379;28;20049;-62
2023/12/08 01:13:19;;;;;;;59.50;29.65;;;;;;;;;;2090203;28;20120;-62
2023/12/08 01:14:20;;;;;;;63.20;31.17;;;;;;;;;;2090325;28;20033;-62
2023/12/08 01:15:20;;;;;;;59.03;27.90;;;;;;;;;;2089776;28;20049;-62
2023/12/08 01:16:21;;;;;;;54.65;25.52;;;;;;;;;;2090328;28;20040;-63
2023/12/08 01:17:22;;;;;;;55.15;24.77;;;;;;;;;;2090345;28;20049;-62
2023/12/08 01:18:23;;;;;;;59.50;30.42;;;;;;;;;;2090191;28;20033;-62
2023/12/08 01:19:23;;;;;;;52.72;25.67;;;;;;;;;;2090958;28;20373;-62
2023/12/08 01:20:24;;;;;;;55.95;26.33;;;;;;;;;;2091549;28;20523;-62
2023/12/08 01:21:25;;;;;;;58.13;24.85;;;;;;;;;;2092164;28;20029;-62
2023/12/08 01:22:27;;;;;;;57.63;26.83;;;;;;;;;;2091580;28;20053;-63
2023/12/08 01:23:28;;;;;;;58.20;28.60;;;;;;;;;;2091058;28;20032;-62
2023/12/08 01:24:28;;;;;;;61.20;27.75;;;;;;;;;;2091418;28;20033;-63
2023/12/08 01:25:29;;;;;;;57.90;29.05;;;;;;;;;;2091646;28;20057;-62
2023/12/08 01:26:30;;;;;;;58.42;27.95;;;;;;;;;;2091612;28;20071;-62
2023/12/08 01:27:31;;;;;;;56.20;26.73;;;;;;;;;;2091633;28;20144;-62
2023/12/08 01:28:31;;;;;;;60.85;27.50;;;;;;;;;;2091638;28;20037;-62
2023/12/08 01:29:32;;;;;;;57.83;25.27;;;;;;;;;;2091666;28;20385;-63
2023/12/08 01:30:33;;;;;;;57.28;28.00;;;;;;;;;;2091545;28;20493;-62
2023/12/08 01:31:33;;;;;;;58.58;25.25;;;;;;;;;;2091311;28;20044;-62
2023/12/08 01:32:34;;;;;;;47.78;21.33;;;;;;;;;;2091794;28;20036;-63
2023/12/08 01:33:35;;;;;;;59.83;27.40;;;;;;;;;;2091809;28;20045;-62
2023/12/08 01:34:35;;;;;;;57.20;29.60;;;;;;;;;;2091679;28;20049;-62
2023/12/08 01:35:36;;;;;;;56.10;25.50;;;;;;;;;;2091838;28;20045;-62
2023/12/08 01:36:37;;;;;;;60.42;27.65;;;;;;;;;;2091472;28;20385;-62
2023/12/08 01:37:38;;;;;;;55.47;27.17;;;;;;;;;;2091436;28;20508;-63
2023/12/08 01:38:42;;;;;;;59.00;29.48;;;;;;;;;;2091066;28;20044;-62
2023/12/08 01:39:43;;;;;;;58.03;29.42;;;;;;;;;;2091298;28;20044;-63
2023/12/08 01:40:44;;;;;;;61.63;30.45;;;;;;;;;;2091152;28;20066;-62
2023/12/08 01:41:48;;;;;;;59.92;26.90;;;;;;;;;;2091329;28;20469;-63
2023/12/08 01:42:49;;;;;;;59.42;31.25;;;;;;;;;;2091365;28;20033;-63
2023/12/08 01:43:50;;;;;;;58.58;29.88;;;;;;;;;;2091652;28;20473;-62
2023/12/08 01:44:50;;;;;;;53.95;26.15;;;;;;;;;;2091572;28;20029;-63
2023/12/08 01:45:51;;;;;;;61.88;31.00;;;;;;;;;;2091373;28;20036;-63
2023/12/08 01:46:52;;;;;;;55.95;27.67;;;;;;;;;;2091263;28;20036;-63
2023/12/08 01:47:52;;;;;;;57.13;30.27;;;;;;;;;;2091460;28;20044;-62
2023/12/08 01:48:53;;;;;;;61.40;29.92;;;;;;;;;;2091352;28;20025;-62
2023/12/08 01:49:54;;;;;;;57.13;29.77;;;;;;;;;;2091441;28;20396;-62
2023/12/08 01:50:55;;;;;;;53.00;27.60;;;;;;;;;;2091140;28;20029;-62
2023/12/08 01:51:57;;;;;;;54.13;27.02;;;;;;;;;;2098483;28;20455;-63
2023/12/08 01:52:57;;;;;;;51.15;25.63;;;;;;;;;;2106700;28;20051;-63
2023/12/08 01:53:58;;;;;;;54.83;27.98;;;;;;;;;;2091635;28;20033;-63
2023/12/08 01:54:59;;;;;;;51.08;26.42;;;;;;;;;;2091601;28;20033;-62
2023/12/08 01:55:59;;;;;;;52.20;25.85;;;;;;;;;;2090779;28;20481;-63
2023/12/08 01:57:00;;;;;;;55.63;27.17;;;;;;;;;;2090613;28;20029;-63
2023/12/08 01:58:01;;;;;;;55.95;29.20;;;;;;;;;;2091388;28;20127;-62
2023/12/08 01:59:02;;;;;;;51.22;27.77;;;;;;;;;;2091653;28;20033;-62
2023/12/08 02:00:03;;;;;;;54.50;27.95;;;;;;;;;;2089852;28;20036;-62
2023/12/08 02:01:08;;;;;;;52.40;26.48;;;;;;;;;;2090821;28;20040;-62
2023/12/08 02:02:08;;;;;;;50.65;26.48;;;;;;;;;;2090922;28;20071;-62
2023/12/08 02:03:09;;;;;;;50.75;25.55;;;;;;;;;;2099226;28;20036;-62
2023/12/08 02:04:10;;;;;;;48.53;23.45;;;;;;;;;;2107446;28;20040;-62
2023/12/08 02:05:11;;;;;;;47.58;24.50;;;;;;;;;;2091128;28;20452;-62
2023/12/08 02:06:11;;;;;;;53.17;27.38;;;;;;;;;;2091322;28;20553;-62
2023/12/08 02:07:13;;;;;;;51.20;25.77;;;;;;;;;;2091260;28;20127;-62
2023/12/08 02:08:14;;;;;;;52.42;25.75;;;;;;;;;;2091283;28;20048;-64
2023/12/08 02:09:19;;;;;;;48.33;24.45;;;;;;;;;;2082745;28;20378;-62
2023/12/08 02:10:20;;;;;;;56.20;28.13;;;;;;;;;;2075624;28;20056;-62
2023/12/08 02:11:21;;;;;;;51.50;24.63;;;;;;;;;;2090914;28;20397;-64
2023/12/08 02:12:22;;;;;;;50.05;24.33;;;;;;;;;;2107717;28;20460;-64
2023/12/08 02:13:23;;;;;;;45.83;21.23;;;;;;;;;;2107743;28;20044;-63
2023/12/08 02:14:23;;;;;;;51.33;26.63;;;;;;;;;;2091350;28;20401;-63
2023/12/08 02:15:24;;;;;;;49.90;23.42;;;;;;;;;;2091637;28;20040;-64
2023/12/08 02:16:45;;;;;;;63.22;29.20;;;;;;;;;;2091434;28;20033;-64
2023/12/08 02:17:46;;;;;;;56.28;27.63;;;;;;;;;;2090963;28;20041;-64
2023/12/08 02:18:47;;;;;;;48.03;23.83;;;;;;;;;;2099192;28;20048;-62
2023/12/08 02:19:48;;;;;;;51.90;25.60;;;;;;;;;;2098328;28;20048;-62
2023/12/08 02:20:48;;;;;;;54.03;27.30;;;;;;;;;;2090465;28;20045;-63
2023/12/08 02:21:49;;;;;;;52.97;27.13;;;;;;;;;;2090801;28;20025;-64
2023/12/08 02:22:50;;;;;;;52.58;27.42;;;;;;;;;;2091017;28;20029;-63
2023/12/08 02:23:51;;;;;;;48.70;24.88;;;;;;;;;;2091404;28;20032;-64
2023/12/08 02:24:51;;;;;;;50.92;24.08;;;;;;;;;;2091125;28;20029;-64
2023/12/08 02:25:52;;;;;;;50.03;26.73;;;;;;;;;;2091429;28;20025;-64
2023/12/08 02:26:53;;;;;;;54.03;28.35;;;;;;;;;;2091141;28;20021;-64
2023/12/08 02:27:53;;;;;;;48.78;25.65;;;;;;;;;;2090673;28;20501;-64
2023/12/08 02:28:54;;;;;;;54.90;28.17;;;;;;;;;;2098890;28;20035;-64
2023/12/08 02:29:55;;;;;;;52.67;27.38;;;;;;;;;;2106276;28;20044;-64
2023/12/08 02:30:56;;;;;;;51.67;26.65;;;;;;;;;;2092167;28;20056;-64
2023/12/08 02:32:01;;;;;;;51.92;27.10;;;;;;;;;;2090636;28;20074;-64
2023/12/08 02:33:08;;;;;;;52.65;26.58;;;;;;;;;;2090752;28;20036;-64
2023/12/08 02:34:09;;;;;;;53.60;27.05;;;;;;;;;;2083871;28;20057;-64
2023/12/08 02:35:10;;;;;;;54.40;26.25;;;;;;;;;;2098980;28;20492;-64
2023/12/08 02:36:10;;;;;;;53.88;27.55;;;;;;;;;;2106814;28;20032;-64
2023/12/08 02:37:11;;;;;;;53.70;27.52;;;;;;;;;;2090660;28;20036;-64
2023/12/08 02:38:13;;;;;;;49.13;27.13;;;;;;;;;;2090671;28;20037;-63
2023/12/08 02:39:13;;;;;;;50.40;26.15;;;;;;;;;;2090809;28;20028;-64
2023/12/08 02:40:14;;;;;;;51.10;27.13;;;;;;;;;;2081402;28;20071;-64
2023/12/08 02:41:15;;;;;;;48.97;26.70;;;;;;;;;;2082478;28;20037;-64
2023/12/08 02:42:16;;;;;;;48.78;26.67;;;;;;;;;;2090617;28;20401;-64
2023/12/08 02:43:17;;;;;;;50.85;24.27;;;;;;;;;;2091186;28;20049;-64
2023/12/08 02:44:18;;;;;;;50.47;25.88;;;;;;;;;;2090993;28;20032;-64
2023/12/08 02:45:18;;;;;;;40.42;22.33;;;;;;;;;;2091084;28;20394;-62
2023/12/08 02:46:19;;;;;;;47.78;22.27;;;;;;;;;;2091172;28;20041;-62
2023/12/08 02:47:20;;;;;;;44.13;22.80;;;;;;;;;;2091185;28;20028;-62
2023/12/08 02:48:21;;;;;;;42.67;20.65;;;;;;;;;;2090960;28;20045;-62
2023/12/08 02:49:21;;;;;;;45.00;20.23;;;;;;;;;;2090230;28;20052;-62
2023/12/08 02:50:22;;;;;;;43.47;20.83;;;;;;;;;;2090464;28;20032;-62
2023/12/08 02:51:23;;;;;;;47.30;23.75;;;;;;;;;;2091277;28;20374;-62
2023/12/08 02:52:23;;;;;;;40.97;21.75;;;;;;;;;;2091039;28;20465;-62
2023/12/08 02:53:24;;;;;;;43.88;20.33;;;;;;;;;;2091251;28;20040;-62
2023/12/08 02:54:25;;;;;;;46.72;23.08;;;;;;;;;;2091490;28;20041;-62
2023/12/08 02:55:26;;;;;;;38.72;18.98;;;;;;;;;;2090806;28;20057;-62
2023/12/08 02:56:26;;;;;;;40.40;19.67;;;;;;;;;;2091046;28;20098;-62
2023/12/08 02:57:27;;;;;;;34.40;17.52;;;;;;;;;;2090607;28;20041;-62
2023/12/08 02:58:28;;;;;;;39.13;19.77;;;;;;;;;;2090955;28;20045;-62
2023/12/08 02:59:28;;;;;;;40.95;20.98;;;;;;;;;;2090121;28;20037;-61
2023/12/08 03:00:29;;;;;;;44.42;19.77;;;;;;;;;;2090723;28;20059;-62
2023/12/08 03:01:30;;;;;;;45.17;22.10;;;;;;;;;;2090717;28;20045;-62
2023/12/08 03:02:31;;;;;;;41.30;19.17;;;;;;;;;;2091062;28;20048;-64
2023/12/08 03:03:31;;;;;;;38.55;19.25;;;;;;;;;;2091079;28;20465;-62
2023/12/08 03:04:32;;;;;;;36.58;17.48;;;;;;;;;;2091135;28;20032;-63
2023/12/08 03:05:33;;;;;;;40.72;20.50;;;;;;;;;;2090927;28;20029;-62
2023/12/08 03:06:33;;;;;;;42.92;20.90;;;;;;;;;;2091060;28;20044;-62
2023/12/08 03:07:34;;;;;;;44.83;20.85;;;;;;;;;;2090769;28;20036;-64
2023/12/08 03:08:35;;;;;;;41.83;20.88;;;;;;;;;;2090516;28;20037;-62
2023/12/08 03:09:36;;;;;;;41.95;19.27;;;;;;;;;;2098338;28;20444;-62
2023/12/08 03:10:37;;;;;;;42.50;20.83;;;;;;;;;;2106110;28;20036;-62
2023/12/08 03:11:37;;;;;;;47.30;23.13;;;;;;;;;;2090982;28;20028;-62
2023/12/08 03:12:38;;;;;;;41.50;18.17;;;;;;;;;;2091024;28;20033;-63
2023/12/08 03:13:39;;;;;;;37.05;18.70;;;;;;;;;;2091182;28;20045;-62
2023/12/08 03:14:39;;;;;;;46.47;22.13;;;;;;;;;;2091168;28;20037;-62
2023/12/08 03:15:40;;;;;;;40.83;19.90;;;;;;;;;;2090828;28;20393;-64
2023/12/08 03:16:41;;;;;;;40.22;18.90;;;;;;;;;;2091165;28;20418;-62
2023/12/08 03:17:42;;;;;;;39.60;19.17;;;;;;;;;;2090982;28;20044;-61
2023/12/08 03:18:43;;;;;;;31.08;13.65;;;;;;;;;;2090702;28;20452;-62
2023/12/08 03:19:43;;;;;;;33.60;16.38;;;;;;;;;;2091107;28;20056;-63
2023/12/08 03:20:44;;;;;;;44.10;22.10;;;;;;;;;;2090617;28;20036;-61
2023/12/08 03:21:45;;;;;;;40.30;20.70;;;;;;;;;;2090755;28;20045;-62
2023/12/08 03:22:46;;;;;;;41.72;19.63;;;;;;;;;;2090672;28;20059;-61
2023/12/08 03:23:46;;;;;;;46.22;19.77;;;;;;;;;;2091007;28;20064;-62
2023/12/08 03:24:47;;;;;;;40.72;19.52;;;;;;;;;;2090961;28;20389;-61
2023/12/08 03:25:48;;;;;;;33.58;15.73;;;;;;;;;;2090471;28;20045;-62
2023/12/08 03:26:48;;;;;;;43.42;23.38;;;;;;;;;;2090834;28;20037;-61
2023/12/08 03:27:49;;;;;;;46.20;23.98;;;;;;;;;;2090911;28;20041;-61
2023/12/08 03:28:50;;;;;;;48.42;24.52;;;;;;;;;;2090887;28;20029;-62
2023/12/08 03:29:51;;;;;;;42.10;22.02;;;;;;;;;;2090863;28;20031;-64
2023/12/08 03:30:51;;;;;;;41.00;21.55;;;;;;;;;;2091110;28;20040;-62
2023/12/08 03:31:52;;;;;;;38.92;19.63;;;;;;;;;;2090975;28;20388;-62
2023/12/08 03:32:53;;;;;;;38.88;19.27;;;;;;;;;;2090955;28;20052;-62
2023/12/08 03:33:53;;;;;;;39.25;20.60;;;;;;;;;;2091157;28;20048;-61
2023/12/08 03:34:54;;;;;;;39.42;19.98;;;;;;;;;;2091618;28;20053;-62
2023/12/08 03:35:55;;;;;;;39.08;19.52;;;;;;;;;;2091454;28;20036;-62
2023/12/08 03:36:55;;;;;;;41.22;19.90;;;;;;;;;;2090915;28;20061;-64
2023/12/08 03:37:56;;;;;;;39.97;21.38;;;;;;;;;;2091064;28;20074;-62
2023/12/08 03:38:57;;;;;;;36.95;18.90;;;;;;;;;;2090936;28;20021;-62
2023/12/08 03:39:58;;;;;;;35.80;17.75;;;;;;;;;;2090742;28;20122;-62
2023/12/08 03:40:58;;;;;;;42.92;20.50;;;;;;;;;;2090655;28;20465;-62
2023/12/08 03:41:59;;;;;;;33.88;16.35;;;;;;;;;;2090559;28;20048;-62
2023/12/08 03:43:00;;;;;;;30.88;14.68;;;;;;;;;;2090594;28;20025;-62
2023/12/08 03:44:00;;;;;;;32.63;15.07;;;;;;;;;;2090517;28;20043;-62
2023/12/08 03:45:01;;;;;;;38.10;17.98;;;;;;;;;;2090699;28;20061;-62
2023/12/08 03:46:02;;;;;;;36.17;18.58;;;;;;;;;;2090848;28;20075;-63
2023/12/08 03:47:03;;;;;;;35.55;16.52;;;;;;;;;;2089320;28;20045;-62
2023/12/08 03:48:03;;;;;;;36.17;16.95;;;;;;;;;;2081494;28;20037;-62
2023/12/08 03:49:04;;;;;;;37.80;18.75;;;;;;;;;;2089346;28;20044;-61
2023/12/08 03:50:05;;;;;;;34.03;15.20;;;;;;;;;;2090625;28;20067;-61
2023/12/08 03:51:06;;;;;;;37.78;16.55;;;;;;;;;;2090696;28;20079;-61
2023/12/08 03:52:07;;;;;;;38.83;17.70;;;;;;;;;;2090894;28;20098;-61
2023/12/08 03:53:07;;;;;;;38.08;18.63;;;;;;;;;;2090403;28;20040;-61
2023/12/08 03:54:08;;;;;;;33.30;16.63;;;;;;;;;;2090408;28;20021;-63
2023/12/08 03:55:09;;;;;;;39.10;20.48;;;;;;;;;;2090344;28;20045;-62
2023/12/08 03:56:09;;;;;;;35.58;18.70;;;;;;;;;;2090167;28;20052;-62
2023/12/08 03:57:10;;;;;;;39.55;18.13;;;;;;;;;;2090414;28;20033;-62
2023/12/08 03:58:11;;;;;;;36.75;18.75;;;;;;;;;;2090643;28;20060;-62
2023/12/08 03:59:11;;;;;;;30.13;14.23;;;;;;;;;;2090184;28;20389;-62
2023/12/08 04:00:13;;;;;;;29.00;12.70;;;;;;;;;;2090214;28;20052;-62
2023/12/08 04:01:17;;;;;;;33.45;17.20;;;;;;;;;;2088712;28;20053;-62
2023/12/08 04:02:17;;;;;;;33.28;17.77;;;;;;;;;;2090274;28;20038;-61
2023/12/08 04:03:18;;;;;;;38.30;20.42;;;;;;;;;;2089670;28;20060;-62
2023/12/08 04:04:19;;;;;;;35.45;19.17;;;;;;;;;;2090623;28;20049;-62
2023/12/08 04:05:20;;;;;;;34.33;17.05;;;;;;;;;;2090613;28;20079;-63
2023/12/08 04:06:20;;;;;;;37.08;19.98;;;;;;;;;;2089968;28;20048;-62
2023/12/08 04:07:21;;;;;;;38.53;21.23;;;;;;;;;;2090383;28;20029;-62
2023/12/08 04:08:22;;;;;;;35.00;18.98;;;;;;;;;;2090507;28;20036;-62
2023/12/08 04:09:22;;;;;;;28.63;14.40;;;;;;;;;;2090158;28;20029;-63
2023/12/08 04:10:23;;;;;;;35.78;18.02;;;;;;;;;;2090612;28;20040;-62
2023/12/08 04:11:24;;;;;;;37.67;19.65;;;;;;;;;;2090363;28;20393;-62
2023/12/08 04:12:25;;;;;;;36.85;19.63;;;;;;;;;;2090389;28;20053;-62
2023/12/08 04:13:25;;;;;;;35.45;19.67;;;;;;;;;;2090609;28;20075;-62
2023/12/08 04:14:26;;;;;;;35.72;19.65;;;;;;;;;;2090361;28;20040;-62
2023/12/08 04:15:27;;;;;;;35.90;19.85;;;;;;;;;;2090487;28;20037;-62
2023/12/08 04:16:28;;;;;;;34.55;19.45;;;;;;;;;;2090466;28;20091;-62
2023/12/08 04:17:28;;;;;;;40.10;20.15;;;;;;;;;;2090445;28;20041;-62
2023/12/08 04:18:29;;;;;;;35.30;19.38;;;;;;;;;;2090280;28;20035;-62
2023/12/08 04:19:30;;;;;;;33.83;18.42;;;;;;;;;;2090504;28;20045;-62
2023/12/08 04:20:31;;;;;;;33.33;17.33;;;;;;;;;;2090337;28;20076;-62
2023/12/08 04:21:31;;;;;;;34.47;18.85;;;;;;;;;;2090154;28;20406;-62
2023/12/08 04:22:32;;;;;;;34.00;19.35;;;;;;;;;;2090434;28;20059;-62
2023/12/08 04:23:33;;;;;;;33.75;17.20;;;;;;;;;;2090470;28;20392;-62
2023/12/08 04:24:34;;;;;;;37.13;20.65;;;;;;;;;;2090234;28;20037;-62
2023/12/08 04:25:35;;;;;;;34.53;17.67;;;;;;;;;;2090403;28;20444;-62
2023/12/08 04:26:35;;;;;;;35.63;19.38;;;;;;;;;;2090576;28;20037;-62
2023/12/08 04:27:36;;;;;;;33.90;19.45;;;;;;;;;;2090435;28;20032;-62
2023/12/08 04:28:37;;;;;;;37.42;19.98;;;;;;;;;;2090449;28;20029;-61
2023/12/08 04:29:38;;;;;;;33.78;19.77;;;;;;;;;;2090267;28;20037;-62
2023/12/08 04:30:39;;;;;;;37.05;19.58;;;;;;;;;;2090336;28;20413;-62
2023/12/08 04:31:39;;;;;;;36.22;17.77;;;;;;;;;;2090254;28;20500;-63
2023/12/08 04:32:40;;;;;;;35.60;19.67;;;;;;;;;;2090230;28;20044;-63
2023/12/08 04:33:41;;;;;;;34.88;19.95;;;;;;;;;;2090366;28;20040;-63
2023/12/08 04:34:42;;;;;;;38.45;20.58;;;;;;;;;;2090588;28;20049;-63
2023/12/08 04:35:42;;;;;;;34.97;19.60;;;;;;;;;;2089956;28;20076;-62
2023/12/08 04:36:43;;;;;;;37.63;20.10;;;;;;;;;;2090487;28;20120;-62
2023/12/08 04:37:44;;;;;;;34.35;19.25;;;;;;;;;;2090893;28;20056;-63
2023/12/08 04:38:44;;;;;;;36.22;19.83;;;;;;;;;;2090371;28;20393;-63
2023/12/08 04:39:45;;;;;;;34.22;19.33;;;;;;;;;;2090167;28;20060;-62
2023/12/08 04:40:46;;;;;;;33.58;19.35;;;;;;;;;;2090413;28;20049;-63
2023/12/08 04:41:47;;;;;;;34.45;19.48;;;;;;;;;;2089698;28;20141;-63
2023/12/08 04:42:48;;;;;;;35.67;19.67;;;;;;;;;;2089886;28;20056;-63
2023/12/08 04:43:48;;;;;;;37.08;20.80;;;;;;;;;;2090031;28;20044;-63
2023/12/08 04:44:49;;;;;;;36.72;19.92;;;;;;;;;;2090188;28;20041;-63
2023/12/08 04:45:50;;;;;;;33.55;18.77;;;;;;;;;;2090352;28;20039;-62
2023/12/08 04:46:50;;;;;;;35.95;20.20;;;;;;;;;;2090166;28;20103;-62
2023/12/08 04:47:51;;;;;;;36.92;20.17;;;;;;;;;;2090136;28;20380;-63
2023/12/08 04:48:52;;;;;;;35.53;18.42;;;;;;;;;;2090612;28;20029;-62
2023/12/08 04:49:53;;;;;;;35.45;19.40;;;;;;;;;;2090152;28;20038;-63
2023/12/08 04:50:54;;;;;;;38.08;21.58;;;;;;;;;;2090453;28;20033;-63
2023/12/08 04:51:54;;;;;;;30.30;15.70;;;;;;;;;;2089853;28;20052;-63
2023/12/08 04:52:55;;;;;;;31.20;16.30;;;;;;;;;;2089605;28;20044;-62
2023/12/08 04:53:56;;;;;;;36.80;20.63;;;;;;;;;;2090549;28;20053;-62
2023/12/08 04:54:56;;;;;;;33.45;17.67;;;;;;;;;;2091976;28;20400;-62
2023/12/08 04:55:57;;;;;;;35.53;19.50;;;;;;;;;;2091824;28;20029;-62
2023/12/08 04:56:58;;;;;;;37.50;20.08;;;;;;;;;;2091874;28;20045;-63
2023/12/08 04:57:59;;;;;;;34.03;16.83;;;;;;;;;;2091748;28;20045;-62
2023/12/08 04:59:00;;;;;;;37.03;20.38;;;;;;;;;;2091849;28;20499;-62
2023/12/08 05:00:01;;;;;;;36.47;20.77;;;;;;;;;;2090818;28;20119;-62
2023/12/08 05:01:02;;;;;;;36.17;20.05;;;;;;;;;;2091118;28;20041;-62
2023/12/08 05:02:03;;;;;;;38.05;20.80;;;;;;;;;;2083094;28;20049;-63
2023/12/08 05:03:03;;;;;;;34.42;19.45;;;;;;;;;;2091631;28;20029;-62
2023/12/08 05:04:04;;;;;;;34.67;19.52;;;;;;;;;;2091886;28;20041;-62
2023/12/08 05:05:05;;;;;;;34.10;17.75;;;;;;;;;;2091869;28;20041;-62
2023/12/08 05:06:06;;;;;;;37.33;19.48;;;;;;;;;;2091845;28;20037;-62
2023/12/08 05:07:07;;;;;;;40.33;22.13;;;;;;;;;;2091740;28;20346;-62
2023/12/08 05:08:08;;;;;;;35.35;19.92;;;;;;;;;;2091979;28;20121;-62
2023/12/08 05:09:10;;;;;;;33.90;19.63;;;;;;;;;;2092140;28;20036;-62
2023/12/08 05:10:11;;;;;;;37.65;20.10;;;;;;;;;;2091734;28;20052;-62
2023/12/08 05:11:12;;;;;;;39.10;20.45;;;;;;;;;;2091766;28;20084;-62
2023/12/08 05:12:12;;;;;;;36.83;20.52;;;;;;;;;;2091702;28;20477;-62
2023/12/08 05:13:13;;;;;;;37.00;20.50;;;;;;;;;;2092027;28;20036;-62
2023/12/08 05:14:14;;;;;;;38.88;19.40;;;;;;;;;;2091882;28;20064;-62
2023/12/08 05:15:15;;;;;;;40.80;21.42;;;;;;;;;;2091771;28;20093;-62
2023/12/08 05:16:16;;;;;;;36.15;20.10;;;;;;;;;;2091691;28;20385;-62
2023/12/08 05:17:17;;;;;;;37.85;19.75;;;;;;;;;;2091974;28;20041;-62
2023/12/08 05:18:17;;;;;;;42.67;22.00;;;;;;;;;;2091804;28;20508;-61
2023/12/08 05:19:18;;;;;;;38.70;21.30;;;;;;;;;;2091825;28;20525;-62
2023/12/08 05:20:19;;;;;;;39.22;21.50;;;;;;;;;;2091666;28;20029;-64
2023/12/08 05:21:19;;;;;;;38.83;21.23;;;;;;;;;;2091643;28;20032;-64
2023/12/08 05:22:20;;;;;;;39.78;20.58;;;;;;;;;;2090934;28;20080;-62
2023/12/08 05:23:21;;;;;;;36.25;19.38;;;;;;;;;;2091555;28;20048;-63
2023/12/08 05:24:22;;;;;;;40.63;21.83;;;;;;;;;;2091589;28;20032;-64
2023/12/08 05:25:22;;;;;;;36.80;21.02;;;;;;;;;;2091694;28;20025;-62
2023/12/08 05:26:25;;;;;;;36.03;19.70;;;;;;;;;;2091329;28;20041;-61
2023/12/08 05:27:25;;;;;;;38.83;21.27;;;;;;;;;;2091668;28;20029;-62
2023/12/08 05:28:26;;;;;;;38.80;22.60;;;;;;;;;;2091669;28;20485;-64
2023/12/08 05:29:27;;;;;;;39.05;21.30;;;;;;;;;;2091583;28;20048;-63
2023/12/08 05:30:28;;;;;;;38.25;20.13;;;;;;;;;;2091165;28;20082;-62
2023/12/08 05:31:28;;;;;;;40.22;20.30;;;;;;;;;;2091298;28;20048;-62
2023/12/08 05:32:29;;;;;;;37.30;19.25;;;;;;;;;;2091832;28;20041;-64
2023/12/08 05:33:30;;;;;;;35.10;18.00;;;;;;;;;;2092128;28;20048;-64
2023/12/08 05:34:31;;;;;;;33.63;14.98;;;;;;;;;;2091798;28;20059;-64
2023/12/08 05:35:31;;;;;;;39.40;19.77;;;;;;;;;;2092016;28;20388;-64
2023/12/08 05:36:32;;;;;;;37.80;21.02;;;;;;;;;;2091376;28;20048;-63
2023/12/08 05:37:33;;;;;;;29.55;14.68;;;;;;;;;;2091239;28;20049;-64
2023/12/08 05:38:33;;;;;;;41.60;19.58;;;;;;;;;;2091619;28;20040;-64
2023/12/08 05:39:34;;;;;;;33.75;16.40;;;;;;;;;;2091462;28;20037;-63
2023/12/08 05:40:35;;;;;;;38.17;19.33;;;;;;;;;;2091904;28;20056;-63
2023/12/08 05:41:36;;;;;;;31.88;14.20;;;;;;;;;;2091658;28;20420;-64
2023/12/08 05:42:37;;;;;;;34.85;18.90;;;;;;;;;;2091536;28;20067;-64
2023/12/08 05:43:38;;;;;;;39.80;17.88;;;;;;;;;;2091669;28;20493;-64
2023/12/08 05:44:38;;;;;;;39.88;19.95;;;;;;;;;;2091651;28;20028;-64
2023/12/08 05:45:39;;;;;;;32.50;18.17;;;;;;;;;;2091874;28;20045;-64
2023/12/08 05:46:40;;;;;;;35.08;17.73;;;;;;;;;;2091447;28;20056;-64
2023/12/08 05:47:43;;;;;;;40.17;20.23;;;;;;;;;;2091659;28;20033;-64
2023/12/08 05:48:43;;;;;;;39.72;19.65;;;;;;;;;;2091440;28;20045;-64
2023/12/08 05:49:44;;;;;;;35.65;19.48;;;;;;;;;;2091468;28;20033;-64
2023/12/08 05:50:45;;;;;;;38.40;20.70;;;;;;;;;;2091423;28;20044;-63
2023/12/08 05:51:45;;;;;;;35.42;19.58;;;;;;;;;;2091658;28;20041;-64
2023/12/08 05:52:46;;;;;;;39.78;22.45;;;;;;;;;;2091593;28;20366;-64
2023/12/08 05:53:47;;;;;;;38.17;20.77;;;;;;;;;;2091216;28;20503;-64